Time;durP1;ratioP1;P1;durP2;ratioP2;P2;SDS_P1;SDS_P2;PMS_P1;PMS_P2;Temp;Humidity;BMP_temperature;BMP_pressure;BME280_temperature;BME280_humidity;BME280_pressure;Samples;Min_cycle;Max_cycle;Signal;HPM_P1;HPM_P2
2024/01/31 00:01:39;;;;;;;11.97;11.37;;;;;;;-3.50;77.25;94376.03;4992364;28;20294;-81
2024/01/31 00:04:06;;;;;;;12.57;11.97;;;;;;;-3.63;77.01;94354.41;4991878;28;20199;-81
2024/01/31 00:06:31;;;;;;;11.13;10.63;;;;;;;-3.61;77.26;94375.50;4990258;28;20220;-81
2024/01/31 00:08:57;;;;;;;11.27;10.77;;;;;;;-3.71;76.90;94369.69;4992806;28;20176;-85
2024/01/31 00:11:30;;;;;;;10.80;10.30;;;;;;;-3.60;76.23;94370.25;4990153;28;20232;-84
2024/01/31 00:13:57;;;;;;;11.30;10.60;;;;;;;-3.69;76.25;94371.13;4992723;28;20196;-84
2024/01/31 00:16:23;;;;;;;12.03;11.43;;;;;;;-3.74;77.17;94370.78;4992391;28;20224;-83
2024/01/31 00:18:52;;;;;;;12.43;11.63;;;;;;;-3.64;77.26;94373.22;4992690;28;20183;-84
2024/01/31 00:21:19;;;;;;;12.90;12.10;;;;;;;-3.70;78.16;94369.53;4990255;28;20228;-84
2024/01/31 00:23:46;;;;;;;14.03;12.80;;;;;;;-3.64;78.41;94370.66;4992458;28;20176;-85
2024/01/31 00:26:13;;;;;;;13.07;12.17;;;;;;;-3.71;77.46;94370.50;4990572;28;20237;-84
2024/01/31 00:28:40;;;;;;;11.93;11.23;;;;;;;-3.71;77.94;94362.84;4992857;28;20281;-85
2024/01/31 00:31:05;;;;;;;12.37;11.63;;;;;;;-3.69;77.59;94368.56;4992193;28;20231;-83
2024/01/31 00:33:31;;;;;;;13.23;12.60;;;;;;;-3.81;76.82;94353.66;4992329;28;20313;-84
2024/01/31 00:35:57;;;;;;;12.53;11.93;;;;;;;-3.73;77.37;94356.25;4990567;28;20235;-84
2024/01/31 00:38:23;;;;;;;10.57;10.07;;;;;;;-3.71;77.21;94360.28;4992268;28;20189;-84
2024/01/31 00:40:49;;;;;;;9.70;9.20;;;;;;;-3.80;77.42;94357.81;4990462;28;20338;-84
2024/01/31 00:43:16;;;;;;;10.70;10.20;;;;;;;-3.91;77.53;94352.97;4990785;28;20195;-84
2024/01/31 00:45:43;;;;;;;12.17;11.67;;;;;;;-3.95;78.16;94364.41;4990509;28;20231;-84
2024/01/31 00:48:09;;;;;;;11.87;11.17;;;;;;;-4.08;78.40;94348.69;4992198;28;20184;-84
2024/01/31 00:50:35;;;;;;;12.43;11.90;;;;;;;-4.12;78.30;94340.53;4990725;28;20216;-84
2024/01/31 00:53:01;;;;;;;11.90;11.20;;;;;;;-3.97;77.98;94363.75;4991998;28;20208;-84
2024/01/31 00:55:27;;;;;;;11.43;10.90;;;;;;;-4.06;77.05;94341.72;4990652;28;20180;-84
2024/01/31 00:57:54;;;;;;;12.03;11.23;;;;;;;-3.93;77.15;94362.50;4992135;28;20199;-85
2024/01/31 01:00:23;;;;;;;12.83;12.10;;;;;;;-4.03;77.50;94334.53;4990956;28;20281;-81
2024/01/31 01:02:50;;;;;;;13.37;12.60;;;;;;;-3.89;78.07;94351.06;4991966;28;20230;-83
2024/01/31 01:05:15;;;;;;;14.07;12.70;;;;;;;-3.98;78.04;94347.66;4990673;28;20220;-84
2024/01/31 01:07:45;;;;;;;15.30;13.73;;;;;;;-3.73;77.65;94338.41;4991888;28;20176;-84
2024/01/31 01:10:17;;;;;;;14.60;13.70;;;;;;;-3.79;77.62;94344.09;4990610;28;20254;-78
2024/01/31 01:12:43;;;;;;;12.43;11.80;;;;;;;-3.82;77.35;94340.13;4991752;28;20281;-84
2024/01/31 01:15:10;;;;;;;12.73;12.13;;;;;;;-3.75;76.73;94337.78;4991906;28;20180;-83
2024/01/31 01:17:38;;;;;;;10.97;10.47;;;;;;;-3.81;77.15;94335.78;5092955;28;20192;-85
2024/01/31 01:20:06;;;;;;;11.00;10.50;;;;;;;-3.78;77.65;94345.69;5093656;28;20165;-85
2024/01/31 01:22:32;;;;;;;10.50;9.93;;;;;;;-3.77;76.96;94337.94;4992617;28;20220;-84
2024/01/31 01:24:58;;;;;;;11.77;11.27;;;;;;;-3.64;75.88;94345.16;4991512;28;20549;-80
2024/01/31 01:27:25;;;;;;;11.97;11.37;;;;;;;-3.70;76.15;94349.13;4991320;28;20291;-81
2024/01/31 01:29:53;;;;;;;12.03;11.47;;;;;;;-3.85;76.07;94337.06;4991899;28;20196;-80
2024/01/31 01:32:19;;;;;;;12.43;11.73;;;;;;;-3.81;76.73;94340.91;4990992;28;20244;-79
2024/01/31 01:34:45;;;;;;;12.10;11.30;;;;;;;-3.88;75.77;94319.50;4991408;28;20195;-79
2024/01/31 01:37:11;;;;;;;16.53;15.10;;;;;;;-3.91;75.19;94300.22;4990866;28;20224;-79
2024/01/31 01:39:39;;;;;;;16.10;14.67;;;;;;;-4.03;74.93;94285.31;4991219;28;20223;-80
2024/01/31 01:42:05;;;;;;;15.00;13.60;;;;;;;-3.71;75.08;94336.50;4990951;28;20228;-80
2024/01/31 01:44:33;;;;;;;13.73;12.77;;;;;;;-3.69;74.54;94339.72;4991432;28;20187;-80
2024/01/31 01:47:03;;;;;;;14.60;13.40;;;;;;;-3.67;74.00;94325.03;4990764;28;20250;-80
2024/01/31 01:49:33;;;;;;;14.53;13.20;;;;;;;-3.61;74.87;94329.56;4991334;28;20164;-81
2024/01/31 01:51:59;;;;;;;17.87;16.03;;;;;;;-3.63;75.97;94328.91;4990638;28;20231;-80
2024/01/31 01:54:25;;;;;;;16.93;15.20;;;;;;;-3.73;75.98;94333.31;4990878;28;20187;-81
2024/01/31 01:56:53;;;;;;;29.90;19.37;;;;;;;-3.75;76.07;94325.78;4990678;28;20227;-80
2024/01/31 01:59:20;;;;;;;18.73;16.90;;;;;;;-3.82;76.98;94311.25;4991458;28;20214;-81
2024/01/31 02:01:47;;;;;;;14.40;13.40;;;;;;;-3.84;77.66;94310.59;4990632;28;20224;-80
2024/01/31 02:04:17;;;;;;;11.90;11.10;;;;;;;-3.86;77.59;94315.06;4991130;28;20588;-81
2024/01/31 02:06:43;;;;;;;11.33;10.57;;;;;;;-3.92;77.65;94303.69;4990763;28;20231;-80
2024/01/31 02:09:11;;;;;;;11.30;10.70;;;;;;;-3.90;77.75;94308.66;4991080;28;20210;-80
2024/01/31 02:11:37;;;;;;;12.37;11.87;;;;;;;-4.11;77.84;94275.81;4990593;28;20228;-81
2024/01/31 02:14:03;;;;;;;11.33;10.77;;;;;;;-4.00;78.20;94305.41;4990788;28;20235;-80
2024/01/31 02:16:29;;;;;;;10.43;10.03;;;;;;;-4.06;77.89;94300.91;4990328;28;20235;-80
2024/01/31 02:18:55;;;;;;;10.77;10.33;;;;;;;-4.00;76.66;94295.22;4990839;28;20198;-81
2024/01/31 02:21:24;;;;;;;11.23;10.67;;;;;;;-3.90;76.15;94313.75;4990295;28;20234;-80
2024/01/31 02:23:51;;;;;;;11.70;11.07;;;;;;;-3.95;76.13;94313.38;4990743;28;20651;-79
2024/01/31 02:26:17;;;;;;;13.77;12.80;;;;;;;-3.94;76.83;94299.69;4990387;28;20250;-80
2024/01/31 02:28:43;;;;;;;14.60;13.63;;;;;;;-4.15;76.97;94258.44;4990928;28;20275;-80
2024/01/31 02:31:09;;;;;;;14.37;13.37;;;;;;;-3.88;76.84;94315.22;4988563;28;20224;-78
2024/01/31 02:33:35;;;;;;;13.80;12.70;;;;;;;-3.96;77.21;94309.25;4990686;28;20204;-77
2024/01/31 02:36:01;;;;;;;14.57;13.37;;;;;;;-4.03;77.85;94303.94;4990202;28;20235;-81
2024/01/31 02:38:27;;;;;;;15.27;13.93;;;;;;;-4.22;77.77;94270.19;4990476;28;20186;-85
2024/01/31 02:40:55;;;;;;;14.63;13.43;;;;;;;-4.04;78.49;94297.25;4989961;28;20276;-84
2024/01/31 02:43:20;;;;;;;16.00;14.53;;;;;;;-4.30;79.30;94280.34;4990543;28;20179;-78
2024/01/31 02:45:46;;;;;;;16.33;14.67;;;;;;;-4.33;80.30;94275.53;4990223;28;20224;-85
2024/01/31 02:48:13;;;;;;;15.97;14.47;;;;;;;-4.17;80.19;94293.50;4990607;28;20251;-84
2024/01/31 02:50:39;;;;;;;15.43;14.03;;;;;;;-4.19;80.27;94290.28;4990225;28;20250;-85
2024/01/31 02:53:05;;;;;;;16.67;15.33;;;;;;;-4.10;79.27;94289.38;4990467;28;20641;-84
2024/01/31 02:55:31;;;;;;;14.33;13.13;;;;;;;-4.29;79.67;94279.38;4989983;28;20222;-82
2024/01/31 02:57:58;;;;;;;15.17;14.07;;;;;;;-4.57;80.00;94268.50;4990306;28;20290;-83
2024/01/31 03:00:23;;;;;;;14.17;12.97;;;;;;;-4.45;79.68;94282.59;4990320;28;20188;-83
2024/01/31 03:02:49;;;;;;;15.63;14.23;;;;;;;-4.24;79.31;94289.94;4990445;28;20175;-83
2024/01/31 03:05:15;;;;;;;15.80;14.57;;;;;;;-4.39;80.13;94291.41;4989833;28;20241;-80
2024/01/31 03:07:41;;;;;;;14.80;13.50;;;;;;;-4.33;80.21;94303.56;4993074;28;20180;-80
2024/01/31 03:10:09;;;;;;;13.47;12.47;;;;;;;-4.32;79.95;94300.06;4993928;28;20180;-84
2024/01/31 03:12:36;;;;;;;13.97;12.90;;;;;;;-4.48;79.80;94290.53;4992214;28;20232;-81
2024/01/31 03:15:02;;;;;;;13.90;13.10;;;;;;;-4.53;80.23;94274.09;4993675;28;20191;-84
2024/01/31 03:17:35;;;;;;;12.07;11.37;;;;;;;-4.48;79.92;94282.91;4993350;28;20212;-85
2024/01/31 03:20:05;;;;;;;12.67;11.87;;;;;;;-4.44;79.00;94285.97;4993376;28;20188;-84
2024/01/31 03:22:32;;;;;;;12.67;11.77;;;;;;;-4.48;78.31;94274.47;4993064;28;20220;-84
2024/01/31 03:25:00;;;;;;;12.00;11.20;;;;;;;-4.50;79.36;94277.16;4992468;28;20192;-84
2024/01/31 03:27:27;;;;;;;12.60;11.90;;;;;;;-4.22;78.21;94276.09;4991983;28;20228;-84
2024/01/31 03:29:52;;;;;;;11.40;10.90;;;;;;;-4.41;78.08;94278.00;4993737;28;20206;-85
2024/01/31 03:32:18;;;;;;;10.47;10.07;;;;;;;-4.17;76.86;94273.09;4992846;28;20228;-83
2024/01/31 03:34:44;;;;;;;11.83;11.43;;;;;;;-4.21;76.99;94277.69;4993499;28;20198;-84
2024/01/31 03:37:10;;;;;;;11.07;10.57;;;;;;;-4.33;77.54;94271.25;4992027;28;20250;-84
2024/01/31 03:39:36;;;;;;;10.50;10.10;;;;;;;-4.20;76.65;94268.31;4993175;28;20250;-85
2024/01/31 03:42:03;;;;;;;11.20;10.70;;;;;;;-4.05;76.04;94282.09;4992791;28;20568;-83
2024/01/31 03:44:33;;;;;;;10.60;10.10;;;;;;;-4.13;76.62;94275.19;4993292;28;20224;-82
2024/01/31 03:47:00;;;;;;;10.07;9.73;;;;;;;-4.22;77.80;94280.41;4992854;28;20230;-84
2024/01/31 03:49:25;;;;;;;10.23;9.83;;;;;;;-4.34;77.47;94271.41;4993100;28;20172;-84
2024/01/31 03:51:51;;;;;;;9.87;9.47;;;;;;;-4.25;75.98;94283.25;4992678;28;20262;-83
2024/01/31 03:54:17;;;;;;;10.07;9.73;;;;;;;-4.28;75.83;94289.41;4992954;28;20204;-84
2024/01/31 03:56:43;;;;;;;10.47;9.97;;;;;;;-4.39;76.71;94288.88;4992587;28;20220;-84
2024/01/31 03:59:09;;;;;;;11.63;10.83;;;;;;;-4.44;76.53;94286.75;4992949;28;20191;-85
2024/01/31 04:01:36;;;;;;;13.53;12.63;;;;;;;-4.41;75.67;94266.09;4992938;28;20223;-84
2024/01/31 04:04:03;;;;;;;14.67;13.57;;;;;;;-4.33;76.12;94288.28;4992809;28;20188;-84
2024/01/31 04:06:31;;;;;;;15.17;13.70;;;;;;;-4.39;76.77;94299.06;4992475;28;20246;-84
2024/01/31 04:08:56;;;;;;;12.57;11.47;;;;;;;-4.48;76.59;94299.94;4992864;28;20206;-84
2024/01/31 04:11:22;;;;;;;15.27;13.67;;;;;;;-4.52;76.78;94296.88;4992396;28;20220;-85
2024/01/31 04:13:48;;;;;;;14.13;12.93;;;;;;;-4.48;77.41;94295.63;4992540;28;20268;-82
2024/01/31 04:16:15;;;;;;;15.00;13.77;;;;;;;-4.59;78.28;94300.94;4992185;28;20301;-84
2024/01/31 04:18:42;;;;;;;13.37;12.33;;;;;;;-4.54;77.95;94286.03;4992598;28;20266;-85
2024/01/31 04:21:09;;;;;;;13.73;12.63;;;;;;;-4.81;78.26;94265.75;4992341;28;20252;-85
2024/01/31 04:23:36;;;;;;;14.00;12.80;;;;;;;-4.62;78.33;94283.41;4992681;28;20188;-85
2024/01/31 04:26:01;;;;;;;12.77;11.63;;;;;;;-4.47;77.70;94296.44;4992036;28;20216;-84
2024/01/31 04:28:27;;;;;;;13.50;12.53;;;;;;;-4.61;78.02;94294.41;4992645;28;20183;-83
2024/01/31 04:30:53;;;;;;;12.37;11.57;;;;;;;-4.60;77.67;94298.56;4992456;28;20249;-83
2024/01/31 04:33:20;;;;;;;13.97;12.67;;;;;;;-4.70;78.90;94305.50;4992394;28;20204;-82
2024/01/31 04:35:46;;;;;;;15.57;14.40;;;;;;;-4.58;78.72;94299.22;4992040;28;20212;-83
2024/01/31 04:38:12;;;;;;;17.30;15.63;;;;;;;-4.57;79.36;94305.91;4992310;28;20240;-83
2024/01/31 04:40:40;;;;;;;15.80;14.43;;;;;;;-4.57;79.33;94305.91;4991633;28;20232;-83
2024/01/31 04:43:07;;;;;;;15.47;13.93;;;;;;;-4.67;79.91;94307.75;4992316;28;20180;-78
2024/01/31 04:45:33;;;;;;;16.00;14.73;;;;;;;-4.63;80.01;94301.41;4991761;28;20219;-77
2024/01/31 04:47:59;;;;;;;15.83;14.53;;;;;;;-4.65;80.21;94308.41;4991469;28;20192;-75
2024/01/31 04:50:25;;;;;;;13.87;11.63;;;;;;;-4.43;78.91;94307.94;4991805;28;20243;-74
2024/01/31 04:52:51;;;;;;;12.63;11.83;;;;;;;-4.63;78.54;94312.41;4992108;28;20200;-76
2024/01/31 04:55:17;;;;;;;13.93;12.87;;;;;;;-4.63;79.40;94307.31;4991702;28;20222;-74
2024/01/31 04:57:45;;;;;;;12.93;12.20;;;;;;;-4.64;78.16;94289.63;4992103;28;20207;-74
2024/01/31 05:00:16;;;;;;;13.20;12.20;;;;;;;-4.59;78.14;94292.53;4989651;28;20184;-74
2024/01/31 05:02:44;;;;;;;12.73;11.87;;;;;;;-4.48;78.54;94282.91;4991969;28;20191;-73
2024/01/31 05:05:11;;;;;;;13.13;12.40;;;;;;;-4.39;78.54;94287.09;4991535;28;20184;-73
2024/01/31 05:07:38;;;;;;;12.87;12.03;;;;;;;-4.48;78.82;94274.47;4992038;28;20188;-78
2024/01/31 05:10:05;;;;;;;13.70;13.07;;;;;;;-4.36;78.50;94288.56;4991878;28;20187;-74
2024/01/31 05:12:30;;;;;;;12.17;11.47;;;;;;;-4.58;80.17;94263.56;4991361;28;20244;-75
2024/01/31 05:14:56;;;;;;;11.47;10.87;;;;;;;-4.53;78.17;94264.72;4991990;28;20191;-76
2024/01/31 05:17:22;;;;;;;12.17;11.67;;;;;;;-4.12;77.53;94291.28;4991484;28;20258;-79
2024/01/31 05:19:48;;;;;;;10.13;9.60;;;;;;;-4.04;76.63;94289.59;4990785;28;20462;-74
2024/01/31 05:22:15;;;;;;;10.90;10.50;;;;;;;-4.04;76.17;94283.69;4991495;28;20220;-72
2024/01/31 05:24:42;;;;;;;11.90;11.40;;;;;;;-3.89;74.47;94287.31;4991797;28;20168;-77
2024/01/31 05:27:08;;;;;;;11.40;10.73;;;;;;;-3.84;74.57;94292.72;4991323;28;20234;-75
2024/01/31 05:29:35;;;;;;;10.97;10.57;;;;;;;-3.88;74.58;94306.75;4991000;28;20199;-78
2024/01/31 05:32:00;;;;;;;10.53;10.03;;;;;;;-4.03;75.15;94303.16;4991380;28;20231;-80
2024/01/31 05:34:27;;;;;;;11.27;10.77;;;;;;;-4.17;74.81;94303.69;4990481;28;20273;-76
2024/01/31 05:36:54;;;;;;;11.00;10.60;;;;;;;-4.10;74.17;94297.03;4991086;28;20264;-79
2024/01/31 05:39:19;;;;;;;15.53;14.43;;;;;;;-4.26;75.11;94307.09;4991152;28;20563;-78
2024/01/31 05:41:45;;;;;;;12.10;11.23;;;;;;;-4.10;75.08;94304.69;4990236;28;20235;-76
2024/01/31 05:44:11;;;;;;;15.07;13.97;;;;;;;-4.10;75.55;94305.50;4991629;28;20172;-77
2024/01/31 05:46:37;;;;;;;12.03;11.33;;;;;;;-4.09;76.02;94311.38;4991036;28;20228;-79
2024/01/31 05:49:03;;;;;;;13.80;12.90;;;;;;;-4.27;75.88;94318.25;4991240;28;20243;-79
2024/01/31 05:51:30;;;;;;;15.97;14.80;;;;;;;-4.18;76.52;94322.47;4991005;28;20254;-81
2024/01/31 05:53:56;;;;;;;16.37;15.00;;;;;;;-4.41;78.40;94323.88;4991087;28;20208;-81
2024/01/31 05:56:23;;;;;;;17.83;16.43;;;;;;;-4.42;78.16;94289.16;4990671;28;20234;-78
2024/01/31 05:58:49;;;;;;;18.50;16.90;;;;;;;-4.17;79.50;94329.97;4991423;28;20187;-77
2024/01/31 06:01:15;;;;;;;21.07;17.70;;;;;;;-4.29;80.13;94318.41;4990218;28;20234;-76
2024/01/31 06:03:41;;;;;;;21.47;17.27;;;;;;;-4.21;79.96;94333.78;4991290;28;20192;-76
2024/01/31 06:06:08;;;;;;;24.93;17.77;;;;;;;-4.30;80.51;94310.91;4990661;28;20256;-77
2024/01/31 06:08:35;;;;;;;22.50;16.67;;;;;;;-4.13;80.83;94335.59;4990814;28;20188;-77
2024/01/31 06:11:08;;;;;;;22.80;17.63;;;;;;;-4.21;81.52;94317.69;4990563;28;20216;-77
2024/01/31 06:13:38;;;;;;;21.70;19.10;;;;;;;-4.11;81.61;94328.59;4990864;28;20219;-78
2024/01/31 06:16:06;;;;;;;20.63;18.50;;;;;;;-4.06;81.57;94328.97;4989601;28;20809;-76
2024/01/31 06:18:34;;;;;;;20.20;18.07;;;;;;;-3.84;80.94;94328.44;4990848;28;20237;-79
2024/01/31 06:21:02;;;;;;;20.83;18.67;;;;;;;-4.10;82.04;94314.88;4990596;28;20227;-76
2024/01/31 06:23:30;;;;;;;22.80;19.87;;;;;;;-4.33;81.90;94268.69;4990790;28;20188;-78
2024/01/31 06:25:59;;;;;;;22.63;18.53;;;;;;;-3.96;82.93;94322.00;4988635;28;20222;-77
2024/01/31 06:28:25;;;;;;;21.40;18.57;;;;;;;-4.04;82.52;94320.19;4990754;28;20251;-77
2024/01/31 06:30:58;;;;;;;19.20;17.13;;;;;;;-3.97;82.11;94312.75;4990287;28;20228;-76
2024/01/31 06:33:31;;;;;;;21.60;18.47;;;;;;;-3.82;81.82;94308.69;4990861;28;20196;-77
2024/01/31 06:36:00;;;;;;;29.87;20.70;;;;;;;-3.84;82.70;94315.69;4989865;28;20303;-78
2024/01/31 06:38:28;;;;;;;28.33;20.27;;;;;;;-4.04;84.62;94306.63;4990544;28;20189;-84
2024/01/31 06:40:58;;;;;;;31.10;23.50;;;;;;;-4.34;84.48;94261.19;4990246;28;20257;-80
2024/01/31 06:43:25;;;;;;;30.57;22.33;;;;;;;-3.94;84.61;94312.47;4993937;28;20176;-82
2024/01/31 06:45:53;;;;;;;28.63;21.97;;;;;;;-3.58;87.97;94334.38;4991198;28;20290;-78
2024/01/31 06:48:20;;;;;;;33.80;21.77;;;;;;;-3.82;85.71;94304.41;4993982;28;20180;-78
2024/01/31 06:50:45;;;;;;;26.63;23.60;;;;;;;-3.89;86.24;94330.66;4993479;28;20211;-78
2024/01/31 06:53:11;;;;;;;29.43;21.93;;;;;;;-3.95;86.71;94321.84;4993918;28;20215;-78
2024/01/31 06:55:37;;;;;;;31.23;21.27;;;;;;;-3.91;86.04;94315.50;4992154;28;20254;-77
2024/01/31 06:58:04;;;;;;;31.97;22.77;;;;;;;-3.90;86.10;94313.75;4993464;28;20199;-78
2024/01/31 07:00:31;;;;;;;28.37;23.10;;;;;;;-3.75;85.93;94322.47;4993458;28;20235;-79
2024/01/31 07:02:57;;;;;;;27.53;21.97;;;;;;;-3.53;85.22;94320.19;4992711;28;20180;-79
2024/01/31 07:05:23;;;;;;;29.30;23.03;;;;;;;-3.55;85.68;94323.84;4993285;28;20183;-79
2024/01/31 07:07:50;;;;;;;31.40;23.30;;;;;;;-3.57;86.64;94326.56;4993582;28;20256;-77
2024/01/31 07:10:16;;;;;;;31.17;22.40;;;;;;;-3.37;85.75;94327.94;4993187;28;20183;-77
2024/01/31 07:12:42;;;;;;;33.90;23.17;;;;;;;-3.69;85.47;94270.81;4993699;28;20218;-78
2024/01/31 07:15:10;;;;;;;31.27;23.27;;;;;;;-3.01;84.11;94320.88;4993552;28;20184;-78
2024/01/31 07:17:37;;;;;;;33.40;24.00;;;;;;;-3.10;84.19;94315.91;4993217;28;20228;-79
2024/01/31 07:20:05;;;;;;;33.00;24.57;;;;;;;-3.04;84.02;94323.75;4993605;28;20251;-78
2024/01/31 07:22:30;;;;;;;32.63;24.47;;;;;;;-3.05;84.19;94319.56;4993207;28;20212;-78
2024/01/31 07:24:56;;;;;;;31.00;24.70;;;;;;;-2.82;83.67;94322.38;4993472;28;20206;-78
2024/01/31 07:27:22;;;;;;;34.77;25.37;;;;;;;-2.83;83.40;94303.66;4993145;28;20221;-78
2024/01/31 07:29:48;;;;;;;33.57;23.47;;;;;;;-2.71;82.69;94316.97;4993491;28;20187;-78
2024/01/31 07:32:15;;;;;;;33.47;25.07;;;;;;;-2.65;81.99;94273.69;4991827;28;20291;-79
2024/01/31 07:34:42;;;;;;;36.13;24.97;;;;;;;-2.63;82.77;94325.44;4993311;28;20242;-78
2024/01/31 07:37:08;;;;;;;33.27;26.60;;;;;;;-2.72;83.08;94326.38;4991634;28;20284;-78
2024/01/31 07:39:33;;;;;;;40.03;27.50;;;;;;;-2.77;82.87;94326.03;4993070;28;20224;-78
2024/01/31 07:41:59;;;;;;;35.23;26.47;;;;;;;-2.87;84.29;94317.72;4991568;28;20224;-79
2024/01/31 07:44:25;;;;;;;35.33;26.60;;;;;;;-2.79;83.49;94325.41;4993282;28;20193;-78
2024/01/31 07:46:51;;;;;;;38.57;27.20;;;;;;;-2.51;83.28;94319.06;4991701;28;20240;-78
2024/01/31 07:49:18;;;;;;;38.30;25.67;;;;;;;-2.14;82.44;94332.19;4993288;28;20188;-78
2024/01/31 07:51:46;;;;;;;34.90;26.13;;;;;;;-2.08;81.82;94334.13;4991277;28;20226;-79
2024/01/31 07:54:11;;;;;;;39.27;26.70;;;;;;;-2.33;81.65;94281.38;4993161;28;20229;-79
2024/01/31 07:56:37;;;;;;;47.53;26.97;;;;;;;-2.16;81.67;94326.44;4991724;28;20232;-78
2024/01/31 07:59:03;;;;;;;36.97;25.53;;;;;;;-2.11;81.71;94333.63;4993073;28;20177;-77
2024/01/31 08:01:29;;;;;;;40.40;24.83;;;;;;;-1.99;81.65;94330.59;4992861;28;20228;-78
2024/01/31 08:03:56;;;;;;;34.50;25.70;;;;;;;-1.81;80.88;94323.56;4992868;28;20172;-78
2024/01/31 08:06:23;;;;;;;38.10;26.87;;;;;;;-1.82;80.60;94328.81;4991989;28;20266;-79
2024/01/31 08:08:48;;;;;;;37.53;24.83;;;;;;;-1.96;80.43;94302.13;4992938;28;20192;-78
2024/01/31 08:11:14;;;;;;;42.50;26.77;;;;;;;-1.73;80.34;94320.97;4991538;28;20219;-79
2024/01/31 08:13:40;;;;;;;37.27;27.43;;;;;;;-1.76;80.21;94318.72;4992748;28;20216;-79
2024/01/31 08:16:06;;;;;;;43.33;27.43;;;;;;;-1.80;80.82;94314.09;4992069;28;20696;-80
2024/01/31 08:18:32;;;;;;;34.60;25.97;;;;;;;-1.54;79.51;94324.91;4992890;28;20185;-79
2024/01/31 08:20:59;;;;;;;41.93;27.80;;;;;;;-1.74;80.04;94308.31;4992160;28;20310;-79
2024/01/31 08:23:26;;;;;;;47.13;29.40;;;;;;;-2.01;80.28;94296.69;4992819;28;20173;-79
2024/01/31 08:25:51;;;;;;;38.47;26.67;;;;;;;-1.36;78.78;94314.47;4992037;28;20219;-79
2024/01/31 08:28:17;;;;;;;42.00;26.97;;;;;;;-1.22;77.04;94308.66;4992621;28;20204;-79
2024/01/31 08:30:43;;;;;;;38.40;27.53;;;;;;;-1.36;77.77;94319.59;4992372;28;20208;-79
2024/01/31 08:33:09;;;;;;;35.53;27.27;;;;;;;-1.13;78.19;94312.78;4992628;28;20207;-79
2024/01/31 08:35:35;;;;;;;47.23;30.23;;;;;;;-0.88;77.67;94306.59;4992168;28;20228;-79
2024/01/31 08:38:02;;;;;;;43.33;27.63;;;;;;;-1.06;78.28;94313.75;4992542;28;20192;-79
2024/01/31 08:40:27;;;;;;;39.63;28.33;;;;;;;-1.20;79.39;94317.00;4991787;28;20252;-79
2024/01/31 08:42:58;;;;;;;40.17;27.13;;;;;;;-1.10;78.36;94285.06;4992416;28;20214;-79
2024/01/31 08:45:25;;;;;;;35.30;25.57;;;;;;;-0.56;77.48;94311.56;4989795;28;20260;-79
2024/01/31 08:47:51;;;;;;;37.70;25.90;;;;;;;-0.63;76.60;94296.06;4992321;28;20188;-79
2024/01/31 08:50:17;;;;;;;38.03;28.23;;;;;;;-0.58;76.71;94313.50;4989982;28;20191;-79
2024/01/31 08:52:43;;;;;;;38.40;26.13;;;;;;;-0.48;76.63;94308.91;4992166;28;20665;-79
2024/01/31 08:55:12;;;;;;;38.50;27.37;;;;;;;-0.62;77.31;94304.53;4992223;28;20193;-78
2024/01/31 08:57:39;;;;;;;35.23;26.93;;;;;;;-0.72;77.93;94294.50;5093934;28;20213;-79
2024/01/31 09:00:06;;;;;;;41.77;26.70;;;;;;;-0.95;78.09;94295.44;5094349;28;20263;-79
2024/01/31 09:02:32;;;;;;;34.97;27.10;;;;;;;-0.76;79.13;94285.53;4993753;28;20279;-79
2024/01/31 09:04:59;;;;;;;34.33;26.80;;;;;;;-0.77;79.66;94290.84;4990941;28;20180;-79
2024/01/31 09:07:25;;;;;;;42.80;27.03;;;;;;;-0.82;78.61;94286.22;4991649;28;20277;-79
2024/01/31 09:09:51;;;;;;;40.63;27.13;;;;;;;-0.54;78.67;94284.75;4992109;28;20172;-79
2024/01/31 09:12:17;;;;;;;40.37;25.80;;;;;;;-0.23;77.78;94288.06;4990161;28;20232;-79
2024/01/31 09:14:44;;;;;;;41.03;28.83;;;;;;;-0.64;78.99;94232.13;4992069;28;20259;-79
2024/01/31 09:17:10;;;;;;;38.30;28.03;;;;;;;-0.31;79.64;94266.78;4990074;28;20216;-78
2024/01/31 09:19:35;;;;;;;45.47;28.13;;;;;;;-0.01;78.14;94276.97;4991997;28;20290;-78
2024/01/31 09:22:02;;;;;;;47.03;27.23;;;;;;;0.11;76.81;94274.78;4990096;28;20220;-79
2024/01/31 09:24:28;;;;;;;42.70;28.57;;;;;;;0.11;76.41;94267.06;4991819;28;20188;-79
2024/01/31 09:26:54;;;;;;;48.33;28.37;;;;;;;0.10;76.96;94268.06;4990039;28;20216;-79
2024/01/31 09:29:20;;;;;;;41.57;28.97;;;;;;;0.38;76.01;94263.94;4991823;28;20188;-79
2024/01/31 09:31:48;;;;;;;47.90;28.83;;;;;;;0.26;76.90;94265.34;4990524;28;20232;-79
2024/01/31 09:34:14;;;;;;;47.40;28.53;;;;;;;0.37;76.20;94259.78;4991499;28;20211;-78
2024/01/31 09:36:40;;;;;;;46.17;29.23;;;;;;;0.63;75.16;94251.59;4990209;28;20216;-78
2024/01/31 09:39:05;;;;;;;44.17;27.83;;;;;;;0.68;74.48;94246.75;4991378;28;20255;-78
2024/01/31 09:41:32;;;;;;;38.63;27.83;;;;;;;0.75;74.35;94240.69;4990027;28;20234;-79
2024/01/31 09:43:59;;;;;;;43.33;30.27;;;;;;;0.88;73.47;94253.72;4991498;28;20216;-78
2024/01/31 09:46:26;;;;;;;48.93;29.63;;;;;;;0.48;74.09;94236.22;4990058;28;20216;-79
2024/01/31 09:48:54;;;;;;;43.47;29.70;;;;;;;0.46;76.27;94232.22;4991251;28;20221;-79
2024/01/31 09:51:23;;;;;;;45.10;27.53;;;;;;;0.58;74.61;94226.44;4989983;28;20227;-78
2024/01/31 09:53:57;;;;;;;42.33;27.67;;;;;;;0.91;74.16;94232.81;4991362;28;20214;-77
2024/01/31 09:56:27;;;;;;;41.47;31.37;;;;;;;1.06;72.87;94220.69;4988511;28;20223;-77
2024/01/31 09:58:55;;;;;;;46.90;26.90;;;;;;;1.44;71.30;94227.22;4990538;28;20195;-77
2024/01/31 10:01:24;;;;;;;46.87;29.57;;;;;;;1.19;70.34;94179.69;4991169;28;20225;-76
2024/01/31 10:03:52;;;;;;;48.73;28.93;;;;;;;1.39;71.51;94236.47;4991370;28;20221;-76
2024/01/31 10:06:19;;;;;;;45.10;27.83;;;;;;;1.21;71.34;94218.09;4990819;28;20223;-77
2024/01/31 10:08:50;;;;;;;52.57;29.70;;;;;;;1.37;71.32;94212.72;4991189;28;20179;-77
2024/01/31 10:11:17;;;;;;;44.67;31.07;;;;;;;1.27;71.22;94213.03;4990687;28;20236;-77
2024/01/31 10:13:44;;;;;;;51.67;30.23;;;;;;;1.57;71.31;94214.47;4991102;28;20224;-77
2024/01/31 10:16:09;;;;;;;44.57;29.03;;;;;;;1.59;71.24;94202.22;4990234;28;20230;-77
2024/01/31 10:18:35;;;;;;;39.10;27.73;;;;;;;1.92;69.14;94210.22;4989908;28;20191;-77
2024/01/31 10:21:01;;;;;;;44.57;28.37;;;;;;;1.97;68.00;94204.50;4990697;28;20231;-77
2024/01/31 10:23:28;;;;;;;44.40;31.40;;;;;;;1.89;70.00;94209.78;4990872;28;20200;-77
2024/01/31 10:25:55;;;;;;;45.70;30.80;;;;;;;1.68;70.64;94206.25;4988547;28;20227;-77
2024/01/31 10:28:22;;;;;;;42.67;30.40;;;;;;;1.90;69.52;94193.38;4991078;28;20168;-77
2024/01/31 10:30:49;;;;;;;53.87;31.03;;;;;;;2.03;69.66;94193.44;4990538;28;20216;-76
2024/01/31 10:33:15;;;;;;;48.93;30.00;;;;;;;1.86;69.81;94181.84;4991273;28;20212;-76
2024/01/31 10:35:43;;;;;;;47.90;30.93;;;;;;;2.06;69.58;94193.88;4988546;28;20303;-76
2024/01/31 10:38:12;;;;;;;48.50;29.07;;;;;;;2.53;66.61;94190.56;4990717;28;20180;-76
2024/01/31 10:40:41;;;;;;;52.20;32.07;;;;;;;2.39;67.54;94181.19;4988448;28;20301;-76
2024/01/31 10:43:10;;;;;;;48.17;32.77;;;;;;;2.27;67.31;94159.53;4990687;28;20216;-77
2024/01/31 10:45:37;;;;;;;44.60;30.80;;;;;;;2.41;65.92;94171.50;4989532;28;20215;-77
2024/01/31 10:48:03;;;;;;;48.50;29.00;;;;;;;2.91;64.81;94173.69;4990688;28;20184;-77
2024/01/31 10:50:33;;;;;;;45.93;30.77;;;;;;;3.04;63.86;94159.03;4990288;28;20192;-77
2024/01/31 10:53:02;;;;;;;55.40;31.40;;;;;;;2.85;65.67;94164.13;4990650;28;20196;-77
2024/01/31 10:55:31;;;;;;;45.20;28.20;;;;;;;3.18;62.98;94158.09;4990363;28;20199;-77
2024/01/31 10:57:59;;;;;;;44.67;29.07;;;;;;;3.31;62.44;94157.31;4989620;28;20607;-77
2024/01/31 11:00:32;;;;;;;52.50;29.63;;;;;;;2.96;62.44;94117.94;4988952;28;20184;-77
2024/01/31 11:03:00;;;;;;;45.60;29.60;;;;;;;3.36;61.79;94146.38;4991067;28;20207;-77
2024/01/31 11:05:30;;;;;;;42.53;30.63;;;;;;;3.46;59.81;94157.09;4988840;28;20257;-77
2024/01/31 11:07:58;;;;;;;46.73;27.87;;;;;;;3.56;59.28;94142.84;4990565;28;20172;-77
2024/01/31 11:10:27;;;;;;;44.47;29.00;;;;;;;3.79;58.57;94143.22;4990142;28;20215;-77
2024/01/31 11:13:04;;;;;;;43.73;28.90;;;;;;;3.38;60.16;94123.78;4990546;28;20212;-76
2024/01/31 11:15:35;;;;;;;49.53;29.90;;;;;;;3.30;61.77;94127.31;4990286;28;20239;-76
2024/01/31 11:18:08;;;;;;;42.07;29.63;;;;;;;3.60;59.84;94136.28;4990739;28;20207;-77